Flight Track Log - Related Links

Times and Time Zones

All times are in EDT time to prevent confusion due to time zone crossing. See the EJA929 flight status page for this flight to view local times or setup timezone preferences in your user account.

Time Position Orientation Groundspeed Altitude Reporting Facility
EDT Latitude Longitude Course Direction KTS MPH feet Rate Location/Type
Fri 09:27:35 AM 29.5194 -98.4739 228° Southwest 165 190 1,600  Level Houston Center
Fri 09:28:39 AM 29.4814 -98.5217 228° Southwest 197 227 4,300 2,524 Climbing Houston Center
Fri 09:29:41 AM 29.5211 -98.5942 302° West 278 320 6,900 2,613 Climbing Houston Center
Fri 09:30:43 AM 29.6025 -98.5864 North 299 344 9,700 2,177 Climbing Houston Center
Fri 09:31:45 AM 29.6689 -98.5233 40° Northeast 310 357 11,400 1,355 Climbing Houston Center
Fri 09:32:47 AM 29.7467 -98.4536 38° Northeast 350 403 12,500 1,248 Climbing Houston Center
Fri 09:33:50 AM 29.8336 -98.3758 38° Northeast 364 419 14,000 1,344 Climbing Houston Center
Fri 09:34:52 AM 29.9153 -98.3028 38° Northeast 368 423 15,300 1,452 Climbing Houston Center
Fri 09:35:54 AM 30.0053 -98.2211 38° Northeast 376 433 17,000 823 Climbing Houston Center
Fri 09:36:56 AM 30.0917 -98.1433 38° Northeast 395 455 17,000  Level Houston Center
Fri 09:37:58 AM 30.1608 -98.0214 57° Northeast 423 487 17,000  Level Houston Center
Fri 09:39:00 AM 30.2147 -97.8994 63° Northeast 426 490 17,000  Level Houston Center
Fri 09:40:03 AM 30.2739 -97.7681 62° Northeast 437 503 17,000  Level Houston Center
Fri 09:41:05 AM 30.3281 -97.6456 63° Northeast 436 502 17,000  Level Houston Center
Fri 09:42:07 AM 30.3808 -97.5214 64° Northeast 434 499 17,000  Level Houston Center
Fri 09:43:09 AM 30.4089 -97.3858 76° East 436 502 17,000  Level Houston Center
Fri 09:44:11 AM 30.4372 -97.2494 76° East 436 502 17,000 -677 Level Houston Center
Fri 09:45:13 AM 30.4706 -97.0872 77° East 436 502 15,600 -1,548 Descending Houston Center
Fri 09:46:15 AM 30.4978 -96.9536 77° East 435 501 13,800 -1,824 Descending Houston Center
Fri 09:47:18 AM 30.5244 -96.8239 77° East 421 484 11,800 -1,953 Descending Houston Center
Fri 09:47:41 AM 30.5350 -96.7647 78° East 405 466 11,000 -1,258 Descending Houston Center
Fri 09:48:20 AM 30.5483 -96.7033 76° East 394 453 10,500 -1,091 Descending Houston Center
Fri 09:48:36 AM 30.5542 -96.6656 80° East 342 394 10,000 -1,355 Descending Houston Center
Fri 09:49:22 AM 30.5686 -96.6081 74° East 313 360 9,100 -1,869 Descending Houston Center
Fri 09:49:37 AM 30.5939 -96.5864 36° Northeast 271 312 8,100 -3,042 Descending Houston Center
Fri 09:50:33 AM 30.6675 -96.5903 357° North 294 338 5,500 -2,532 Descending Houston Center
Fri 09:51:26 AM 30.7358 -96.5975 355° North 287 330 3,500 -1,670 Descending Houston Center
Fri 09:52:28 AM 30.7769 -96.5500 45° Northeast 252 290 2,300 -1,120 Descending Houston Center
Fri 09:52:41 AM 30.7783 -96.5322 85° East 204 235 2,100 -190 Descending Houston Center
Fri 09:53:31 AM 30.7869 -96.4847 78° East 224 258 2,100  Level Houston Center
Fri 09:53:43 AM 30.7894 -96.4653 81° East 195 224 2,100  Level Houston Center
Fri 09:54:33 AM 30.7939 -96.4236 83° East 206 237 2,100  Level Houston Center
Fri 09:54:43 AM 30.7811 -96.4128 144° Southeast 171 197 2,100  Level Houston Center
Fri 09:55:39 AM 30.7400 -96.3981 163° South 154 177 2,100  Level Houston Center
Fri 09:56:39 AM 30.6981 -96.3867 167° South 168 193 2,100 -295 Level Houston Center
Fri 09:57:41 AM 30.6564 -96.3781 170° South 147 169 1,500 -590 Descending Houston Center
Fri 09:58:41 AM 30.6250 -96.3711 169° South 137 158 900 -344 Descending Houston Center
Fri 09:59:43 AM 30.5917 -96.3628 168° South 134 154 800 -97 Descending Houston Center
Fri 10:01:00 AM 30.5886 -96.3638 106° East  Level Estimated

Login

Don't have an account? Register now (free) for customized features, flight alerts, and more!